createdAt,value
2023-04-10T00:00:46.591Z,97302.72
2023-04-10T00:03:14.275Z,97300.50
2023-04-10T00:05:42.109Z,97299.19
2023-04-10T00:08:11.170Z,97294.25
2023-04-10T00:10:38.744Z,97291.94
2023-04-10T00:13:06.290Z,97297.13
2023-04-10T00:15:33.835Z,97301.63
2023-04-10T00:18:01.572Z,97306.16
2023-04-10T00:20:29.176Z,97307.75
2023-04-10T00:22:56.731Z,97301.63
2023-04-10T00:25:26.609Z,97298.38
2023-04-10T00:27:54.375Z,97297.00
2023-04-10T00:30:22.103Z,97288.00
2023-04-10T00:32:49.678Z,97291.00
2023-04-10T00:35:17.195Z,97282.84
2023-04-10T00:37:44.734Z,97292.81
2023-04-10T00:40:12.684Z,97283.94
2023-04-10T00:42:41.665Z,97276.88
2023-04-10T00:45:10.863Z,97280.69
2023-04-10T00:47:38.967Z,97277.69
2023-04-10T00:50:07.523Z,97276.72
2023-04-10T00:52:35.249Z,97271.94
2023-04-10T00:55:03.553Z,97276.28
2023-04-10T00:57:31.172Z,97272.47
2023-04-10T01:00:01.063Z,97275.75
2023-04-10T01:02:28.676Z,97283.94
2023-04-10T01:04:56.440Z,97283.69
2023-04-10T01:07:36.430Z,97286.66
2023-04-10T01:10:16.148Z,97284.50
2023-04-10T01:12:59.396Z,97273.84
2023-04-10T01:15:31.798Z,97277.66
2023-04-10T01:18:05.572Z,97274.53
2023-04-10T01:20:35.751Z,97274.94
2023-04-10T01:23:20.604Z,97275.78
2023-04-10T01:25:53.175Z,97276.59
2023-04-10T01:28:48.895Z,97275.09
2023-04-10T01:31:21.492Z,97269.50
2023-04-10T01:33:53.082Z,97268.25
2023-04-10T01:36:25.144Z,97269.47
2023-04-10T01:38:55.836Z,97273.00
2023-04-10T01:41:24.924Z,97264.28
2023-04-10T01:43:55.991Z,97267.00
2023-04-10T01:46:24.964Z,97265.50
2023-04-10T01:48:55.627Z,97271.91
2023-04-10T01:51:24.692Z,97272.44
2023-04-10T01:53:53.229Z,97266.19
2023-04-10T01:56:21.886Z,97260.72
2023-04-10T01:58:49.741Z,97261.00
2023-04-10T02:01:29.178Z,97265.63
2023-04-10T02:03:58.932Z,97266.84
2023-04-10T02:06:35.728Z,97262.88
2023-04-10T02:09:11.516Z,97267.34
2023-04-10T02:11:46.399Z,97269.25
2023-04-10T02:14:18.203Z,97272.13
2023-04-10T02:16:48.300Z,97263.09
2023-04-10T02:19:17.305Z,97269.66
2023-04-10T02:21:45.006Z,97270.84
2023-04-10T02:24:12.678Z,97269.47
2023-04-10T02:26:47.037Z,97270.97
2023-04-10T02:29:14.634Z,97276.53
2023-04-10T02:31:42.345Z,97278.53
2023-04-10T02:34:11.502Z,97272.00
2023-04-10T02:36:39.880Z,97274.84
2023-04-10T02:39:08.236Z,97276.06
2023-04-10T02:41:35.818Z,97283.13
2023-04-10T02:44:03.365Z,97279.97
2023-04-10T02:46:31.129Z,97278.47
2023-04-10T02:48:58.742Z,97269.31
2023-04-10T02:51:27.730Z,97271.34
2023-04-10T02:53:55.355Z,97269.13
2023-04-10T02:56:23.084Z,97266.00
2023-04-10T02:58:50.800Z,97271.41
2023-04-10T03:01:18.480Z,97263.34
2023-04-10T03:03:46.148Z,97249.06
2023-04-10T03:06:13.715Z,97248.34
2023-04-10T03:08:42.583Z,97251.22
2023-04-10T03:11:10.416Z,97248.91
2023-04-10T03:13:37.969Z,97249.81
2023-04-10T03:16:05.981Z,97255.09
2023-04-10T03:18:34.331Z,97254.28
2023-04-10T03:21:02.583Z,97249.13
2023-04-10T03:23:30.170Z,97249.94
2023-04-10T03:25:58.981Z,97249.94
2023-04-10T03:28:27.759Z,97238.81
2023-04-10T03:30:55.355Z,97232.00
2023-04-10T03:33:23.022Z,97235.53
2023-04-10T03:35:50.703Z,97229.66
2023-04-10T03:38:18.300Z,97223.81
2023-04-10T03:40:45.972Z,97232.50
2023-04-10T03:43:14.830Z,97230.03
2023-04-10T03:45:42.494Z,97231.00
2023-04-10T03:48:09.985Z,97236.97
2023-04-10T03:53:34.590Z,97239.56
2023-04-10T04:05:38.379Z,97257.56
2023-04-10T04:22:29.277Z,97255.94
2023-04-10T04:24:56.795Z,97244.53
2023-04-10T04:27:26.478Z,97252.16
2023-04-10T04:30:16.487Z,97245.34
2023-04-10T04:35:10.289Z,97249.13
2023-04-10T04:37:39.101Z,97241.75
2023-04-10T04:40:07.695Z,97258.34
2023-04-10T04:42:35.815Z,97258.34
2023-04-10T04:45:03.386Z,97253.44
2023-04-10T04:47:30.930Z,97252.88
2023-04-10T04:49:58.592Z,97246.88
2023-04-10T04:52:27.426Z,97248.50
2023-04-10T04:54:56.378Z,97243.66
2023-04-10T04:57:24.061Z,97243.03
2023-04-10T04:59:51.654Z,97249.06
2023-04-10T05:02:22.808Z,97248.16
2023-04-10T05:04:50.782Z,97236.50
2023-04-10T05:07:18.531Z,97236.00
2023-04-10T05:09:46.167Z,97226.06
2023-04-10T05:12:15.007Z,97230.03
2023-04-10T05:14:42.553Z,97233.03
2023-04-10T05:17:10.069Z,97228.56
2023-04-10T05:19:37.617Z,97233.31
2023-04-10T05:22:05.270Z,97233.63
2023-04-10T05:24:32.877Z,97236.66
2023-04-10T05:27:00.689Z,97233.22
2023-04-10T05:29:29.562Z,97225.22
2023-04-10T05:31:57.167Z,97232.69
2023-04-10T05:34:24.744Z,97231.63
2023-04-10T05:36:52.446Z,97223.59
2023-04-10T05:39:20.118Z,97219.00
2023-04-10T05:41:47.660Z,97219.53
2023-04-10T05:44:15.333Z,97217.34
2023-04-10T05:46:44.482Z,97227.16
2023-04-10T05:49:12.093Z,97219.84
2023-04-10T05:51:39.753Z,97225.16
2023-04-10T05:54:07.281Z,97226.94
2023-04-10T05:56:34.911Z,97227.22
2023-04-10T05:59:02.527Z,97229.13
2023-04-10T06:01:30.034Z,97228.44
2023-04-10T06:03:59.015Z,97231.03
2023-04-10T06:06:27.024Z,97228.47
2023-04-10T06:08:54.901Z,97233.75
2023-04-10T06:11:22.935Z,97225.56
2023-04-10T06:13:50.971Z,97235.38
2023-04-10T06:16:19.247Z,97228.84
2023-04-10T06:18:47.956Z,97241.09
2023-04-10T06:21:17.485Z,97230.97
2023-04-10T06:23:45.635Z,97228.81
2023-04-10T06:26:13.528Z,97227.66
2023-04-10T06:28:42.139Z,97224.09
2023-04-10T06:31:10.172Z,97222.28
2023-04-10T06:33:37.722Z,97220.19
2023-04-10T06:36:06.358Z,97220.66
2023-04-10T06:38:37.777Z,97218.41
2023-04-10T06:41:06.338Z,97218.06
2023-04-10T06:43:35.479Z,97224.50
2023-04-10T06:46:04.682Z,97220.75
2023-04-10T06:48:32.888Z,97228.19
2023-04-10T06:51:01.549Z,97227.28
2023-04-10T06:53:29.565Z,97226.38
2023-04-10T06:56:01.543Z,97228.75
2023-04-10T06:58:31.054Z,97219.75
2023-04-10T07:00:59.036Z,97216.91
2023-04-10T07:03:26.697Z,97215.41
2023-04-10T07:05:54.240Z,97222.66
2023-04-10T07:08:21.897Z,97221.41
2023-04-10T07:10:49.458Z,97208.13
2023-04-10T07:13:18.302Z,97214.72
2023-04-10T07:15:45.920Z,97207.94
2023-04-10T07:18:13.487Z,97214.31
2023-04-10T07:20:41.340Z,97219.75
2023-04-10T07:23:08.964Z,97226.94
2023-04-10T07:25:36.896Z,97224.88
2023-04-10T07:28:04.636Z,97225.53
2023-04-10T07:30:33.682Z,97226.50
2023-04-10T07:33:01.828Z,97225.22
2023-04-10T07:35:29.803Z,97229.97
2023-04-10T07:37:57.682Z,97220.50
2023-04-10T07:40:25.334Z,97225.00
2023-04-10T07:42:53.957Z,97221.84
2023-04-10T07:45:21.850Z,97228.13
2023-04-10T07:47:51.587Z,97230.03
2023-04-10T07:50:19.573Z,97227.84
2023-04-10T07:52:47.380Z,97234.00
2023-04-10T07:55:15.547Z,97222.31
2023-04-10T07:57:45.236Z,97232.91
2023-04-10T08:00:15.016Z,97227.41
2023-04-10T08:02:43.603Z,97232.50
2023-04-10T08:05:13.791Z,97234.34
2023-04-10T08:07:42.991Z,97225.50
2023-04-10T08:10:12.039Z,97222.19
2023-04-10T08:12:40.540Z,97229.69
2023-04-10T08:15:10.420Z,97235.16
2023-04-10T08:17:46.878Z,97228.88
2023-04-10T08:20:17.315Z,97238.31
2023-04-10T08:22:45.111Z,97232.91
2023-04-10T08:25:12.769Z,97225.47
2023-04-10T08:27:40.343Z,97231.56
2023-04-10T08:30:08.929Z,97240.38
2023-04-10T08:32:36.925Z,97245.44
2023-04-10T08:35:04.917Z,97230.16
2023-04-10T08:37:34.004Z,97239.63
2023-04-10T08:40:01.709Z,97236.75
2023-04-10T08:42:29.470Z,97224.53
2023-04-10T08:44:57.097Z,97228.22
2023-04-10T08:47:28.914Z,97232.44
2023-04-10T08:49:58.836Z,97228.69
2023-04-10T08:52:27.229Z,97227.22
2023-04-10T08:54:58.305Z,97214.78
2023-04-10T08:57:27.209Z,97214.84
2023-04-10T08:59:54.808Z,97224.78
2023-04-10T09:02:23.156Z,97210.63
2023-04-10T09:04:52.478Z,97213.91
2023-04-10T09:07:20.130Z,97203.63
2023-04-10T09:09:47.937Z,97211.44
2023-04-10T09:12:17.636Z,97208.34
2023-04-10T09:14:45.445Z,97195.78
2023-04-10T09:17:15.773Z,97197.19
2023-04-10T09:19:44.191Z,97192.28
2023-04-10T09:22:12.386Z,97193.41
2023-04-10T09:24:41.408Z,97185.69
2023-04-10T09:27:09.858Z,97190.25
2023-04-10T09:29:43.364Z,97182.47
2023-04-10T09:32:11.103Z,97187.31
2023-04-10T09:34:54.026Z,97172.03
2023-04-10T09:37:22.661Z,97172.88
2023-04-10T09:39:50.665Z,97175.00
2023-04-10T09:42:32.533Z,97172.31
2023-04-10T09:45:02.441Z,97163.50
2023-04-10T09:47:30.653Z,97164.28
2023-04-10T09:50:00.822Z,97164.84
2023-04-10T09:52:30.184Z,97147.19
2023-04-10T09:54:59.263Z,97145.63
2023-04-10T09:57:28.596Z,97138.09
2023-04-10T09:59:57.519Z,97131.00
2023-04-10T10:02:31.118Z,97129.72
2023-04-10T10:05:00.683Z,97132.19
2023-04-10T10:07:28.921Z,97120.41
2023-04-10T10:09:56.667Z,97121.81
2023-04-10T10:12:30.939Z,97121.47
2023-04-10T10:15:02.933Z,97115.03
2023-04-10T10:17:37.343Z,97121.72
2023-04-10T10:20:08.854Z,97119.31
2023-04-10T10:22:37.764Z,97113.81
2023-04-10T10:25:06.079Z,97103.38
2023-04-10T10:27:38.275Z,97108.19
2023-04-10T10:30:25.416Z,97099.97
2023-04-10T10:32:59.272Z,97099.19
2023-04-10T10:35:29.545Z,97095.97
2023-04-10T10:38:00.137Z,97087.19
2023-04-10T10:40:32.360Z,97079.16
2023-04-10T10:43:09.883Z,97081.28
2023-04-10T10:45:42.185Z,97068.19
2023-04-10T10:48:11.223Z,97073.63
2023-04-10T10:50:58.696Z,97070.84
2023-04-10T10:53:34.498Z,97073.84
2023-04-10T10:56:34.977Z,97062.22
2023-04-10T10:59:03.321Z,97062.81
2023-04-10T11:01:30.957Z,97052.69
2023-04-10T11:04:01.263Z,97044.75
2023-04-10T11:06:52.176Z,97040.53
2023-04-10T11:09:49.286Z,97041.13
2023-04-10T11:12:17.609Z,97043.81
2023-04-10T11:14:57.156Z,97039.91
2023-04-10T11:17:50.640Z,97034.97
2023-04-10T11:20:22.045Z,97035.25
2023-04-10T11:23:08.202Z,97036.00
2023-04-10T11:25:52.231Z,97032.56
2023-04-10T11:28:35.672Z,97024.16
2023-04-10T11:31:15.948Z,97031.59
2023-04-10T11:33:43.513Z,97029.75
2023-04-10T11:36:15.668Z,97023.53
2023-04-10T11:38:54.896Z,97032.81
2023-04-10T11:41:22.846Z,97024.16
2023-04-10T11:43:52.502Z,97013.50
2023-04-10T11:46:21.320Z,97020.47
2023-04-10T11:48:48.957Z,97012.25
2023-04-10T11:51:17.938Z,97012.56
2023-04-10T11:53:46.255Z,97003.03
2023-04-10T11:56:22.704Z,97001.19
2023-04-10T11:58:54.652Z,97002.03
2023-04-10T12:01:23.220Z,97004.34
2023-04-10T12:03:51.574Z,97002.63
2023-04-10T12:06:21.137Z,96991.69
2023-04-10T12:08:51.077Z,96990.78
2023-04-10T12:11:20.310Z,96993.31
2023-04-10T12:13:48.182Z,96982.72
2023-04-10T12:16:16.148Z,96993.06
2023-04-10T12:18:44.735Z,96992.16
2023-04-10T12:21:12.572Z,96987.56
2023-04-10T12:23:41.500Z,96981.31
2023-04-10T12:26:12.453Z,96981.44
2023-04-10T12:28:42.064Z,96987.28
2023-04-10T12:31:10.305Z,96986.94
2023-04-10T12:33:37.899Z,96981.19
2023-04-10T12:36:05.998Z,96985.53
2023-04-10T12:38:42.717Z,96974.72
2023-04-10T12:41:11.693Z,96970.59
2023-04-10T12:43:41.203Z,96970.34
2023-04-10T12:46:10.618Z,96960.13
2023-04-10T12:48:38.265Z,96947.09
2023-04-10T12:51:06.284Z,96939.69
2023-04-10T12:53:45.834Z,96942.41
2023-04-10T12:56:14.757Z,96938.59
2023-04-10T12:58:42.718Z,96922.59
2023-04-10T13:01:10.551Z,96922.47
2023-04-10T13:03:38.745Z,96921.59
2023-04-10T13:06:07.276Z,96915.16
2023-04-10T13:08:35.043Z,96913.56
2023-04-10T13:11:03.985Z,96907.69
2023-04-10T13:13:32.814Z,96902.41
2023-04-10T13:16:00.736Z,96907.25
2023-04-10T13:18:28.298Z,96909.75
2023-04-10T13:20:55.824Z,96905.06
2023-04-10T13:23:23.364Z,96926.31
2023-04-10T13:25:51.072Z,96898.81
2023-04-10T13:28:21.465Z,96894.88
2023-04-10T13:30:49.211Z,96894.06
2023-04-10T13:33:16.772Z,96890.38
2023-04-10T13:35:44.416Z,96891.44
2023-04-10T13:38:12.551Z,96880.75
2023-04-10T13:40:40.102Z,96874.06
2023-04-10T13:43:07.621Z,96869.81
2023-04-10T13:45:36.477Z,96861.53
2023-04-10T13:48:04.243Z,96859.69
2023-04-10T13:50:31.940Z,96863.06
2023-04-10T13:52:59.496Z,96857.91
2023-04-10T13:55:27.079Z,96862.97
2023-04-10T13:57:54.636Z,96857.72
2023-04-10T14:00:22.348Z,96855.41
2023-04-10T14:02:51.290Z,96864.75
2023-04-10T14:05:19.288Z,96848.91
2023-04-10T14:07:46.852Z,96857.16
2023-04-10T14:10:14.453Z,96850.63
2023-04-10T14:12:41.950Z,96845.72
2023-04-10T14:15:10.713Z,96838.59
2023-04-10T14:17:38.277Z,96834.94
2023-04-10T14:20:11.316Z,96844.25
2023-04-10T14:22:38.855Z,96838.25
2023-04-10T14:25:13.095Z,96836.50
2023-04-10T14:27:41.419Z,96824.56
2023-04-10T14:30:09.991Z,96830.28
2023-04-10T14:32:37.717Z,96826.91
2023-04-10T14:35:07.814Z,96825.75
2023-04-10T14:37:35.401Z,96817.84
2023-04-10T14:40:04.650Z,96818.88
2023-04-10T14:42:32.419Z,96819.88
2023-04-10T14:44:59.926Z,96817.13
2023-04-10T14:47:27.628Z,96813.00
2023-04-10T14:49:55.225Z,96816.97
2023-04-10T14:52:24.585Z,96819.00
2023-04-10T14:54:52.115Z,96818.00
2023-04-10T14:57:19.629Z,96811.69
2023-04-10T14:59:47.184Z,96812.56
2023-04-10T15:02:15.318Z,96800.13
2023-04-10T15:04:43.533Z,96804.66
2023-04-10T15:07:11.066Z,96802.09
2023-04-10T15:09:40.591Z,96790.00
2023-04-10T15:12:08.450Z,96787.88
2023-04-10T15:14:36.133Z,96788.75
2023-04-10T15:17:03.725Z,96792.63
2023-04-10T15:19:31.383Z,96788.81
2023-04-10T15:21:58.917Z,96776.44
2023-04-10T15:24:27.155Z,96786.38
2023-04-10T15:26:57.657Z,96776.28
2023-04-10T15:29:25.177Z,96774.91
2023-04-10T15:31:52.722Z,96777.59
2023-04-10T15:34:20.395Z,96765.47
2023-04-10T15:36:47.934Z,96776.06
2023-04-10T15:39:15.467Z,96772.03
2023-04-10T15:41:42.982Z,96770.41
2023-04-10T15:44:12.018Z,96764.56
2023-04-10T15:46:39.535Z,96770.88
2023-04-10T15:49:07.108Z,96768.22
2023-04-10T15:51:34.706Z,96766.19
2023-04-10T15:54:04.528Z,96758.88
2023-04-10T15:56:32.158Z,96769.19
2023-04-10T15:58:59.684Z,96760.47
2023-04-10T16:01:28.726Z,96760.31
2023-04-10T16:03:56.573Z,96747.38
2023-04-10T16:06:25.859Z,96741.28
2023-04-10T16:08:53.646Z,96735.44
2023-04-10T16:11:21.583Z,96723.13
2023-04-10T16:13:49.113Z,96717.34
2023-04-10T16:16:17.441Z,96721.66
2023-04-10T16:18:46.555Z,96725.72
2023-04-10T16:21:15.149Z,96715.63
2023-04-10T16:23:42.729Z,96713.03
2023-04-10T16:26:10.238Z,96708.66
2023-04-10T16:28:37.719Z,96710.91
2023-04-10T16:31:05.739Z,96704.88
2023-04-10T16:33:33.283Z,96702.66
2023-04-10T16:36:04.562Z,96704.72
2023-04-10T16:38:34.558Z,96697.69
2023-04-10T16:41:03.155Z,96700.13
2023-04-10T16:43:30.695Z,96705.03
2023-04-10T16:45:59.411Z,96701.41
2023-04-10T16:48:27.421Z,96694.16
2023-04-10T16:50:55.055Z,96695.41
2023-04-10T16:53:24.159Z,96697.63
2023-04-10T16:55:57.771Z,96697.22
2023-04-10T16:58:25.403Z,96688.16
2023-04-10T17:00:53.019Z,96690.41
2023-04-10T17:03:20.745Z,96688.41
2023-04-10T17:05:48.284Z,96688.22
2023-04-10T17:08:15.784Z,96682.19
2023-04-10T17:10:44.675Z,96672.09
2023-04-10T17:13:12.217Z,96665.66
2023-04-10T17:15:39.730Z,96648.47
2023-04-10T17:18:07.307Z,96647.09
2023-04-10T17:20:36.616Z,96635.16
2023-04-10T17:23:04.150Z,96636.19
2023-04-10T17:25:31.738Z,96625.72
2023-04-10T17:28:00.606Z,96624.50
2023-04-10T17:30:28.317Z,96618.06
2023-04-10T17:32:55.873Z,96613.63
2023-04-10T17:35:23.918Z,96622.94
2023-04-10T17:37:51.460Z,96624.41
2023-04-10T17:40:19.323Z,96627.44
2023-04-10T17:42:47.180Z,96630.69
2023-04-10T17:45:16.279Z,96620.63
2023-04-10T17:47:43.827Z,96622.25
2023-04-10T17:50:11.949Z,96614.97
2023-04-10T17:52:39.495Z,96620.25
2023-04-10T17:55:08.113Z,96631.16
2023-04-10T17:57:35.676Z,96630.00
2023-04-10T18:00:06.794Z,96628.78
2023-04-10T18:02:35.754Z,96621.72
2023-04-10T18:05:03.616Z,96611.03
2023-04-10T18:07:31.176Z,96615.44
2023-04-10T18:09:58.687Z,96613.66
2023-04-10T18:12:26.182Z,96600.34
2023-04-10T18:14:53.698Z,96603.78
2023-04-10T18:17:21.511Z,96603.00
2023-04-10T18:19:50.944Z,96588.06
2023-04-10T18:22:18.512Z,96577.19
2023-04-10T18:24:47.167Z,96585.06
2023-04-10T18:27:15.305Z,96575.59
2023-04-10T18:29:43.787Z,96576.59
2023-04-10T18:32:11.314Z,96574.78
2023-04-10T18:34:38.815Z,96563.47
2023-04-10T18:37:09.835Z,96563.28
2023-04-10T18:39:38.285Z,96557.03
2023-04-10T18:42:08.899Z,96548.19
2023-04-10T18:44:36.405Z,96547.75
2023-04-10T18:47:05.269Z,96551.59
2023-04-10T18:49:33.007Z,96547.75
2023-04-10T18:52:01.079Z,96554.03
2023-04-10T18:54:30.073Z,96563.91
2023-04-10T18:56:57.630Z,96563.47
2023-04-10T18:59:25.345Z,96563.88
2023-04-10T19:01:52.972Z,96557.44
2023-04-10T19:04:20.698Z,96543.28
2023-04-10T19:06:48.353Z,96553.38
2023-04-10T19:09:15.911Z,96559.41
2023-04-10T19:11:44.920Z,96578.31
2023-04-10T19:14:12.440Z,96578.69
2023-04-10T19:16:39.967Z,96581.91
2023-04-10T19:19:07.484Z,96571.06
2023-04-10T19:21:35.463Z,96576.66
2023-04-10T19:24:03.010Z,96566.59
2023-04-10T19:26:30.632Z,96569.22
2023-04-10T19:29:00.239Z,96568.19
2023-04-10T19:31:29.562Z,96562.16
2023-04-10T19:33:57.200Z,96563.38
2023-04-10T19:36:24.802Z,96569.81
2023-04-10T19:38:52.331Z,96577.06
2023-04-10T19:41:19.858Z,96583.50
2023-04-10T19:43:47.426Z,96582.28
2023-04-10T19:46:20.252Z,96574.78
2023-04-10T19:48:48.496Z,96567.34
2023-04-10T19:51:16.048Z,96569.97
2023-04-10T19:53:43.667Z,96562.47
2023-04-10T19:56:11.182Z,96571.34
2023-04-10T19:58:40.559Z,96563.06
2023-04-10T20:01:10.191Z,96564.47
2023-04-10T20:03:39.493Z,96561.81
2023-04-10T20:06:08.291Z,96559.00
2023-04-10T20:08:36.158Z,96568.22
2023-04-10T20:11:06.278Z,96563.56
2023-04-10T20:13:34.670Z,96567.38
2023-04-10T20:16:02.826Z,96563.56
2023-04-10T20:18:32.183Z,96549.28
2023-04-10T20:21:01.064Z,96537.03
2023-04-10T20:23:28.635Z,96543.06
2023-04-10T20:25:56.159Z,96551.13
2023-04-10T20:28:23.680Z,96550.69
2023-04-10T20:30:51.247Z,96555.28
2023-04-10T20:33:18.814Z,96547.84
2023-04-10T20:35:46.729Z,96541.03
2023-04-10T20:38:15.704Z,96542.00
2023-04-10T20:40:43.234Z,96535.78
2023-04-10T20:43:12.261Z,96548.03
2023-04-10T20:45:40.370Z,96542.19
2023-04-10T20:48:09.517Z,96550.63
2023-04-10T20:50:37.489Z,96547.03
2023-04-10T20:53:05.081Z,96535.34
2023-04-10T20:55:38.093Z,96529.72
2023-04-10T20:58:05.809Z,96527.94
2023-04-10T21:00:33.622Z,96515.03
2023-04-10T21:03:01.399Z,96519.69
2023-04-10T21:05:28.973Z,96530.78
2023-04-10T21:07:56.527Z,96532.38
2023-04-10T21:10:24.336Z,96534.97
2023-04-10T21:12:53.177Z,96518.50
2023-04-10T21:15:22.361Z,96516.50
2023-04-10T21:17:49.928Z,96518.13
2023-04-10T21:20:17.686Z,96506.81
2023-04-10T21:22:45.199Z,96491.97
2023-04-10T21:25:12.856Z,96496.34
2023-04-10T21:27:40.382Z,96501.81
2023-04-10T21:30:10.277Z,96499.19
2023-04-10T21:32:37.896Z,96501.59
2023-04-10T21:35:06.247Z,96486.31
2023-04-10T21:37:33.794Z,96481.88
2023-04-10T21:40:01.655Z,96467.81
2023-04-10T21:42:29.366Z,96465.38
2023-04-10T21:44:56.899Z,96463.38
2023-04-10T21:47:25.760Z,96472.41
2023-04-10T21:49:53.260Z,96471.81
2023-04-10T21:52:20.764Z,96483.47
2023-04-10T21:54:48.308Z,96485.47
2023-04-10T21:57:15.823Z,96493.31
2023-04-10T21:59:43.381Z,96483.03
2023-04-10T22:02:11.404Z,96483.84
2023-04-10T22:04:51.536Z,96474.78
2023-04-10T22:07:22.047Z,96479.22
2023-04-10T22:09:49.559Z,96485.06
2023-04-10T22:12:17.093Z,96486.47
2023-04-10T22:14:44.669Z,96485.44
2023-04-10T22:17:12.206Z,96475.53
2023-04-10T22:19:41.196Z,96467.69
2023-04-10T22:22:09.209Z,96476.09
2023-04-10T22:24:36.868Z,96460.81
2023-04-10T22:27:04.493Z,96456.97
2023-04-10T22:29:32.062Z,96449.53
2023-04-10T22:31:59.572Z,96445.91
2023-04-10T22:34:28.830Z,96435.44
2023-04-10T22:40:44.120Z,96442.69
2023-04-10T23:36:43.062Z,96310.00
